Time;durP1;ratioP1;P1;durP2;ratioP2;P2;SDS_P1;SDS_P2;PMS_P1;PMS_P2;Temp;Humidity;BMP_temperature;BMP_pressure;BME280_temperature;BME280_humidity;BME280_pressure;Samples;Min_cycle;Max_cycle;Signal;HPM_P1;HPM_P2
2024/01/25 00:02:06;;;;;;;2.77;0.70;;;;;;;;;;5055168;28;20194;-72
2024/01/25 00:04:33;;;;;;;4.63;1.20;;;;;;;;;;5056159;28;20569;-73
2024/01/25 00:07:00;;;;;;;5.00;1.10;;;;;;;;;;5072248;28;20233;-73
2024/01/25 00:09:27;;;;;;;5.93;1.20;;;;;;;;;;5054934;28;20175;-72
2024/01/25 00:11:53;;;;;;;4.47;0.83;;;;;;;;;;5071482;28;20205;-72
2024/01/25 00:14:38;;;;;;;2.37;0.80;;;;;;;;;;5055185;28;20182;-72
2024/01/25 00:17:07;;;;;;;3.17;0.80;;;;;;;;;;5055010;28;20182;-72
2024/01/25 00:19:51;;;;;;;4.60;1.00;;;;;;;;;;5055926;28;20170;-72
2024/01/25 00:22:18;;;;;;;3.70;0.77;;;;;;;;;;5056438;28;20505;-72
2024/01/25 00:25:02;;;;;;;0.63;0.40;;;;;;;;;;5055792;28;20563;-72
2024/01/25 00:27:29;;;;;;;8.37;1.20;;;;;;;;;;5071586;28;20187;-72
2024/01/25 00:29:56;;;;;;;4.17;1.10;;;;;;;;;;5038075;28;20229;-72
2024/01/25 00:32:23;;;;;;;6.17;1.20;;;;;;;;;;5055612;28;20510;-73
2024/01/25 00:34:50;;;;;;;3.93;1.20;;;;;;;;;;5054626;28;20211;-72
2024/01/25 00:37:17;;;;;;;6.87;1.27;;;;;;;;;;5055955;28;20236;-70
2024/01/25 00:39:44;;;;;;;5.30;0.97;;;;;;;;;;5054247;28;20202;-73
2024/01/25 00:42:12;;;;;;;8.07;1.23;;;;;;;;;;5055675;28;20182;-72
2024/01/25 00:44:39;;;;;;;2.50;0.63;;;;;;;;;;5070713;28;20187;-72
2024/01/25 00:47:06;;;;;;;4.60;1.20;;;;;;;;;;5054427;28;20265;-73
2024/01/25 00:49:33;;;;;;;8.03;1.27;;;;;;;;;;5070378;28;20242;-72
2024/01/25 00:52:00;;;;;;;10.83;1.30;;;;;;;;;;5055235;28;20213;-73
2024/01/25 00:54:26;;;;;;;5.53;1.57;;;;;;;;;;5070824;28;20189;-73
2024/01/25 00:56:53;;;;;;;5.97;1.60;;;;;;;;;;5055446;28;20225;-72
2024/01/25 00:59:20;;;;;;;5.20;0.90;;;;;;;;;;5054370;28;20179;-73
2024/01/25 01:01:47;;;;;;;7.40;1.90;;;;;;;;;;5070780;28;20232;-73
2024/01/25 01:04:15;;;;;;;6.33;1.43;;;;;;;;;;5053823;28;20182;-72
2024/01/25 01:06:42;;;;;;;11.13;2.70;;;;;;;;;;5055263;28;20187;-73
2024/01/25 01:09:09;;;;;;;12.83;2.07;;;;;;;;;;5070403;28;20186;-71
2024/01/25 01:11:38;;;;;;;13.93;2.57;;;;;;;;;;5054140;28;20218;-73
2024/01/25 01:50:48;;;;;;;17.23;3.20;;;;;;;;;;5054207;28;20221;-73
2024/01/25 01:53:15;;;;;;;15.90;2.70;;;;;;;;;;5069658;28;20196;-72
2024/01/25 01:55:42;;;;;;;21.07;3.03;;;;;;;;;;5054207;28;20187;-74
2024/01/25 01:58:08;;;;;;;21.57;3.20;;;;;;;;;;5052734;28;20285;-73
2024/01/25 02:00:36;;;;;;;13.60;2.93;;;;;;;;;;5054616;28;20201;-73
2024/01/25 02:03:20;;;;;;;16.70;3.23;;;;;;;;;;5067581;28;20154;-73
2024/01/25 02:05:47;;;;;;;12.77;2.53;;;;;;;;;;5069533;28;20193;-73
2024/01/25 02:08:14;;;;;;;15.90;2.90;;;;;;;;;;5069650;28;20217;-73
2024/01/25 02:10:41;;;;;;;10.30;2.13;;;;;;;;;;5036424;28;20209;-73
2024/01/25 02:13:07;;;;;;;15.47;2.90;;;;;;;;;;5053854;28;20190;-72
2024/01/25 02:15:35;;;;;;;14.77;3.37;;;;;;;;;;5052990;28;20198;-72
2024/01/25 02:18:01;;;;;;;13.27;2.10;;;;;;;;;;5053123;28;20195;-72
2024/01/25 02:20:28;;;;;;;11.67;2.37;;;;;;;;;;5052710;28;20194;-72
2024/01/25 02:22:55;;;;;;;11.80;2.30;;;;;;;;;;5052872;28;20650;-72
2024/01/25 02:25:22;;;;;;;12.00;2.80;;;;;;;;;;5053161;28;20187;-73
2024/01/25 02:27:49;;;;;;;13.53;2.00;;;;;;;;;;5052931;28;20189;-72
2024/01/25 02:30:16;;;;;;;11.80;2.13;;;;;;;;;;5069490;28;20199;-72
2024/01/25 02:32:43;;;;;;;16.50;2.73;;;;;;;;;;5054133;28;20183;-72
2024/01/25 02:35:10;;;;;;;13.83;2.30;;;;;;;;;;5069220;28;20207;-73
2024/01/25 02:37:37;;;;;;;16.80;2.30;;;;;;;;;;5068858;28;20683;-73
2024/01/25 02:40:04;;;;;;;11.50;1.97;;;;;;;;;;5053700;28;20644;-73
2024/01/25 02:42:31;;;;;;;12.47;2.20;;;;;;;;;;5053400;28;20186;-72
2024/01/25 02:44:57;;;;;;;10.77;2.27;;;;;;;;;;5053012;28;20518;-72
2024/01/25 02:47:27;;;;;;;10.27;1.93;;;;;;;;;;5052202;28;20630;-72
2024/01/25 02:49:53;;;;;;;12.30;2.23;;;;;;;;;;5069539;28;20583;-72
2024/01/25 02:52:20;;;;;;;11.40;1.70;;;;;;;;;;5053542;28;20673;-72
2024/01/25 02:54:47;;;;;;;13.17;2.13;;;;;;;;;;5069855;28;20625;-72
2024/01/25 02:57:14;;;;;;;9.83;2.10;;;;;;;;;;5040193;28;20191;-73
2024/01/25 02:59:40;;;;;;;9.70;1.80;;;;;;;;;;5057862;28;20191;-72
2024/01/25 03:02:07;;;;;;;10.83;1.97;;;;;;;;;;5056809;28;20206;-73
2024/01/25 03:04:34;;;;;;;8.33;1.30;;;;;;;;;;5056077;28;20187;-71
2024/01/25 03:07:01;;;;;;;8.37;1.73;;;;;;;;;;5057462;28;20189;-71
2024/01/25 03:09:28;;;;;;;10.63;1.97;;;;;;;;;;5057662;28;20193;-72
2024/01/25 03:11:55;;;;;;;9.53;2.20;;;;;;;;;;5056266;28;20222;-72
2024/01/25 03:14:39;;;;;;;8.83;1.70;;;;;;;;;;5056364;28;20170;-72
2024/01/25 03:17:06;;;;;;;7.40;2.03;;;;;;;;;;5055861;28;20182;-73
2024/01/25 03:19:33;;;;;;;7.23;1.57;;;;;;;;;;5056258;28;20557;-72
2024/01/25 03:22:02;;;;;;;9.83;1.93;;;;;;;;;;5072778;28;20187;-73
2024/01/25 03:24:29;;;;;;;10.90;2.20;;;;;;;;;;5055836;28;20195;-72
2024/01/25 03:26:55;;;;;;;7.87;1.83;;;;;;;;;;5055816;28;20525;-72
2024/01/25 03:29:22;;;;;;;10.53;1.80;;;;;;;;;;5039324;28;20606;-72
2024/01/25 03:31:49;;;;;;;12.73;1.90;;;;;;;;;;5072232;28;20206;-72
2024/01/25 03:34:34;;;;;;;7.57;1.30;;;;;;;;;;5057417;28;20218;-72
2024/01/25 03:37:01;;;;;;;9.97;1.80;;;;;;;;;;5072117;28;20599;-72
2024/01/25 03:39:28;;;;;;;5.33;1.23;;;;;;;;;;5056519;28;20233;-72
2024/01/25 03:41:54;;;;;;;8.70;1.70;;;;;;;;;;5072465;28;20187;-72
2024/01/25 03:44:21;;;;;;;12.47;2.10;;;;;;;;;;5072797;28;20531;-72
2024/01/25 03:46:48;;;;;;;6.80;1.50;;;;;;;;;;5039044;28;20186;-72
2024/01/25 03:49:14;;;;;;;8.33;2.00;;;;;;;;;;5038751;28;20313;-72
2024/01/25 03:51:41;;;;;;;11.40;2.00;;;;;;;;;;5055535;28;20665;-72
2024/01/25 03:54:08;;;;;;;13.17;1.73;;;;;;;;;;5039034;28;20287;-73
2024/01/25 03:56:35;;;;;;;8.93;1.93;;;;;;;;;;5056172;28;20514;-73
2024/01/25 03:59:03;;;;;;;5.97;1.10;;;;;;;;;;5056259;28;20221;-72
2024/01/25 04:01:29;;;;;;;5.80;1.20;;;;;;;;;;5071672;28;20182;-73
2024/01/25 04:03:57;;;;;;;11.63;3.00;;;;;;;;;;5056693;28;20191;-72
2024/01/25 04:06:24;;;;;;;6.17;1.30;;;;;;;;;;5052189;28;20595;-72
2024/01/25 04:08:51;;;;;;;10.17;2.93;;;;;;;;;;5019400;28;20564;-72
2024/01/25 04:11:18;;;;;;;6.90;1.43;;;;;;;;;;5035299;28;20203;-73
2024/01/25 04:13:45;;;;;;;9.23;1.73;;;;;;;;;;5036032;28;20188;-72
2024/01/25 04:16:13;;;;;;;9.93;1.60;;;;;;;;;;5034792;28;20197;-72
2024/01/25 04:18:40;;;;;;;12.30;1.60;;;;;;;;;;5034748;28;20190;-72
2024/01/25 04:21:09;;;;;;;9.67;2.20;;;;;;;;;;5018484;28;20190;-73
2024/01/25 04:23:53;;;;;;;7.73;1.57;;;;;;;;;;5036146;28;20145;-71
2024/01/25 04:26:20;;;;;;;9.07;2.00;;;;;;;;;;5036467;28;20187;-73
2024/01/25 04:28:46;;;;;;;8.83;1.50;;;;;;;;;;5034856;28;20254;-72
2024/01/25 04:31:14;;;;;;;11.27;1.80;;;;;;;;;;5034491;28;20203;-72
2024/01/25 04:33:41;;;;;;;8.10;1.57;;;;;;;;;;5034512;28;20184;-72
2024/01/25 04:36:25;;;;;;;8.30;2.07;;;;;;;;;;5034854;28;20262;-72
2024/01/25 04:38:52;;;;;;;10.43;1.97;;;;;;;;;;5035146;28;20619;-72
2024/01/25 04:41:19;;;;;;;9.70;1.97;;;;;;;;;;5034341;28;20221;-72
2024/01/25 04:43:47;;;;;;;9.63;1.87;;;;;;;;;;5036296;28;20274;-72
2024/01/25 04:46:13;;;;;;;5.13;1.77;;;;;;;;;;5034730;28;20623;-72
2024/01/25 04:48:40;;;;;;;6.27;1.60;;;;;;;;;;5034215;28;20274;-72
2024/01/25 04:51:07;;;;;;;10.40;1.63;;;;;;;;;;5001789;28;20259;-72
2024/01/25 04:53:34;;;;;;;9.30;1.70;;;;;;;;;;5035469;28;20194;-72
2024/01/25 04:56:01;;;;;;;5.60;2.00;;;;;;;;;;5034689;28;20195;-72
2024/01/25 04:58:28;;;;;;;8.67;1.70;;;;;;;;;;5034190;28;20336;-72
2024/01/25 05:00:55;;;;;;;6.13;1.27;;;;;;;;;;5033967;28;20183;-73
2024/01/25 05:03:22;;;;;;;11.20;1.70;;;;;;;;;;5034432;28;20270;-72
2024/01/25 05:05:48;;;;;;;9.63;1.53;;;;;;;;;;5034242;28;20271;-72
2024/01/25 05:08:15;;;;;;;6.73;1.80;;;;;;;;;;5017630;28;20184;-72
2024/01/25 05:10:42;;;;;;;11.10;1.50;;;;;;;;;;5034212;28;20195;-73
2024/01/25 05:13:09;;;;;;;7.97;1.90;;;;;;;;;;5033990;28;20623;-72
2024/01/25 05:15:36;;;;;;;6.10;1.40;;;;;;;;;;5034250;28;20193;-73
2024/01/25 05:18:04;;;;;;;8.27;1.60;;;;;;;;;;5017576;28;20191;-72
2024/01/25 05:20:36;;;;;;;7.00;1.37;;;;;;;;;;5034715;28;20187;-72
2024/01/25 05:23:03;;;;;;;5.87;1.13;;;;;;;;;;5035552;28;20210;-73
2024/01/25 05:25:30;;;;;;;2.50;0.83;;;;;;;;;;5035141;28;20187;-72
2024/01/25 05:27:57;;;;;;;5.83;1.10;;;;;;;;;;5033641;28;20203;-72
2024/01/25 05:30:26;;;;;;;5.17;1.40;;;;;;;;;;5033294;28;20214;-72
2024/01/25 05:32:54;;;;;;;7.57;1.27;;;;;;;;;;5016975;28;20180;-72
2024/01/25 05:35:21;;;;;;;8.57;1.30;;;;;;;;;;5033456;28;20701;-73
2024/01/25 05:37:48;;;;;;;7.03;1.20;;;;;;;;;;5033555;28;20237;-72
2024/01/25 05:40:15;;;;;;;3.97;1.30;;;;;;;;;;5034610;28;20237;-72
2024/01/25 05:42:42;;;;;;;5.50;1.67;;;;;;;;;;5033503;28;20194;-73
2024/01/25 05:45:09;;;;;;;9.00;1.80;;;;;;;;;;5034634;28;20187;-72
2024/01/25 05:47:36;;;;;;;10.13;1.83;;;;;;;;;;5033637;28;20690;-72
2024/01/25 05:50:04;;;;;;;7.70;1.97;;;;;;;;;;5033093;28;20219;-72
2024/01/25 05:52:31;;;;;;;4.47;1.70;;;;;;;;;;5016828;28;20222;-73
2024/01/25 05:54:58;;;;;;;8.23;1.70;;;;;;;;;;5017129;28;20553;-72
2024/01/25 05:57:30;;;;;;;7.30;1.80;;;;;;;;;;5033589;28;20621;-72
2024/01/25 05:59:57;;;;;;;6.50;1.53;;;;;;;;;;5033409;28;20197;-72
2024/01/25 06:02:43;;;;;;;3.30;1.20;;;;;;;;;;5033322;28;20156;-72
2024/01/25 06:05:10;;;;;;;7.20;2.40;;;;;;;;;;5032746;28;20176;-72
2024/01/25 06:07:37;;;;;;;5.60;1.20;;;;;;;;;;5017200;28;20196;-73
2024/01/25 06:10:04;;;;;;;7.03;1.77;;;;;;;;;;5032756;28;20190;-72
2024/01/25 06:12:31;;;;;;;11.93;1.63;;;;;;;;;;5016973;28;20211;-72
2024/01/25 06:15:15;;;;;;;9.07;2.47;;;;;;;;;;5032833;28;20170;-72
2024/01/25 06:17:41;;;;;;;9.37;1.77;;;;;;;;;;5032678;28;20285;-72
2024/01/25 06:20:10;;;;;;;9.20;1.83;;;;;;;;;;5033381;28;20179;-72
2024/01/25 06:22:37;;;;;;;7.40;1.80;;;;;;;;;;5017366;28;20582;-72
2024/01/25 06:25:04;;;;;;;12.57;1.90;;;;;;;;;;5033373;28;20195;-73
2024/01/25 06:27:34;;;;;;;7.77;1.53;;;;;;;;;;5033123;28;20190;-71
2024/01/25 06:30:02;;;;;;;6.17;1.40;;;;;;;;;;5032516;28;20218;-72
2024/01/25 06:32:29;;;;;;;6.53;1.40;;;;;;;;;;5033035;28;20298;-72
2024/01/25 06:34:56;;;;;;;6.80;1.53;;;;;;;;;;5016245;28;20294;-73
2024/01/25 06:37:23;;;;;;;5.07;1.50;;;;;;;;;;5016852;28;20194;-72
2024/01/25 06:39:50;;;;;;;4.40;1.60;;;;;;;;;;5016751;28;20199;-72
2024/01/25 06:42:34;;;;;;;7.43;2.00;;;;;;;;;;5032541;28;20156;-72
2024/01/25 06:45:02;;;;;;;8.17;1.70;;;;;;;;;;5033667;28;20207;-72
2024/01/25 06:47:29;;;;;;;7.10;1.63;;;;;;;;;;5018069;28;20191;-72
2024/01/25 06:49:56;;;;;;;5.93;1.30;;;;;;;;;;5031965;28;20285;-73
2024/01/25 06:52:28;;;;;;;8.40;1.60;;;;;;;;;;5033822;28;20191;-73
2024/01/25 06:54:56;;;;;;;6.17;1.50;;;;;;;;;;5032428;28;20217;-72
2024/01/25 06:57:23;;;;;;;6.93;1.40;;;;;;;;;;5032387;28;20191;-73
2024/01/25 06:59:50;;;;;;;6.00;1.67;;;;;;;;;;5032337;28;20198;-71
2024/01/25 07:02:18;;;;;;;7.13;1.53;;;;;;;;;;5032140;28;20289;-71
2024/01/25 07:04:46;;;;;;;6.97;1.70;;;;;;;;;;5032009;28;20218;-71
2024/01/25 07:07:13;;;;;;;4.57;1.50;;;;;;;;;;5034125;28;20186;-71
2024/01/25 07:09:41;;;;;;;5.93;1.33;;;;;;;;;;5033631;28;20322;-71
2024/01/25 07:12:08;;;;;;;7.93;1.90;;;;;;;;;;5032419;28;20230;-72
2024/01/25 07:14:35;;;;;;;4.37;1.40;;;;;;;;;;5033220;28;20187;-72
2024/01/25 07:17:03;;;;;;;9.30;5.23;;;;;;;;;;5048386;28;20230;-73
2024/01/25 07:19:31;;;;;;;9.53;5.43;;;;;;;;;;5049105;28;20526;-71
2024/01/25 07:21:58;;;;;;;6.43;1.47;;;;;;;;;;5048713;28;20299;-72
2024/01/25 07:24:26;;;;;;;1.80;0.60;;;;;;;;;;5031548;28;20206;-72
2024/01/25 07:26:53;;;;;;;2.33;0.70;;;;;;;;;;5032043;28;20658;-72
2024/01/25 07:29:22;;;;;;;3.33;0.80;;;;;;;;;;5032956;28;20267;-72
2024/01/25 07:31:49;;;;;;;2.77;1.50;;;;;;;;;;5048719;28;20215;-72
2024/01/25 07:34:16;;;;;;;2.33;1.07;;;;;;;;;;5032877;28;20180;-72
2024/01/25 07:36:47;;;;;;;3.10;1.83;;;;;;;;;;5048606;28;20274;-72
2024/01/25 07:39:31;;;;;;;1.53;1.00;;;;;;;;;;5033298;28;20182;-72
2024/01/25 07:41:58;;;;;;;2.53;1.70;;;;;;;;;;5034501;28;20197;-72
2024/01/25 07:44:25;;;;;;;2.43;1.57;;;;;;;;;;5035586;28;20195;-72
2024/01/25 07:46:51;;;;;;;2.73;2.07;;;;;;;;;;5035507;28;20195;-72
2024/01/25 07:49:18;;;;;;;2.50;1.30;;;;;;;;;;5052000;28;20595;-71
2024/01/25 07:51:46;;;;;;;1.37;0.57;;;;;;;;;;5051653;28;20199;-71
2024/01/25 07:54:14;;;;;;;0.53;0.53;;;;;;;;;;5035636;28;20222;-71
2024/01/25 07:56:40;;;;;;;1.70;0.80;;;;;;;;;;5056715;28;20183;-72
2024/01/25 07:59:07;;;;;;;2.07;1.00;;;;;;;;;;5071734;28;20214;-72
2024/01/25 08:05:35;;;;;;;4.47;0.80;;;;;;;;;;5055140;28;20205;-71
2024/01/25 08:08:13;;;;;;;0.90;0.60;;;;;;;;;;5054745;28;20201;-72
2024/01/25 08:10:40;;;;;;;1.10;0.60;;;;;;;;;;5055479;28;20181;-72
2024/01/25 08:13:07;;;;;;;0.73;0.50;;;;;;;;;;5054591;28;20229;-75
2024/01/25 08:19:34;;;;;;;2.20;0.90;;;;;;;;;;5042214;28;20259;-72
2024/01/25 08:22:00;;;;;;;1.77;0.70;;;;;;;;;;5034811;28;20446;-73
2024/01/25 08:24:28;;;;;;;1.57;0.80;;;;;;;;;;5035183;28;20196;-71
2024/01/25 08:26:55;;;;;;;3.03;0.80;;;;;;;;;;5034764;28;20527;-71
2024/01/25 08:29:22;;;;;;;1.07;0.60;;;;;;;;;;5035390;28;20434;-71
2024/01/25 08:31:49;;;;;;;9.67;2.60;;;;;;;;;;5034361;28;20214;-71
2024/01/25 08:34:16;;;;;;;2.27;1.60;;;;;;;;;;5034706;28;20480;-71
2024/01/25 08:36:43;;;;;;;4.37;1.50;;;;;;;;;;5034813;28;20837;-71
2024/01/25 08:39:27;;;;;;;5.53;2.17;;;;;;;;;;5036004;28;20385;-71
2024/01/25 08:41:56;;;;;;;2.03;1.07;;;;;;;;;;5035337;28;20570;-71
2024/01/25 08:44:48;;;;;;;2.13;1.00;;;;;;;;;;5034536;28;20228;-71
2024/01/25 08:47:15;;;;;;;2.07;1.10;;;;;;;;;;5044864;28;20216;-71
2024/01/25 08:49:42;;;;;;;2.90;1.40;;;;;;;;;;5055227;28;20218;-71
2024/01/25 08:52:09;;;;;;;2.23;1.47;;;;;;;;;;5053993;28;20207;-71
2024/01/25 08:54:37;;;;;;;3.63;1.40;;;;;;;;;;5053863;28;20245;-71
2024/01/25 08:57:21;;;;;;;1.83;1.10;;;;;;;;;;5054257;28;20655;-71
2024/01/25 08:59:48;;;;;;;3.20;1.10;;;;;;;;;;5054584;28;20438;-70
2024/01/25 09:02:15;;;;;;;3.87;1.83;;;;;;;;;;5054081;28;20924;-71
2024/01/25 09:04:43;;;;;;;3.60;1.80;;;;;;;;;;5055997;28;20456;-71
2024/01/25 09:07:12;;;;;;;2.67;1.90;;;;;;;;;;5069956;28;20183;-70
2024/01/25 09:09:56;;;;;;;2.77;1.20;;;;;;;;;;5054296;28;20744;-70
2024/01/25 09:12:23;;;;;;;3.10;1.50;;;;;;;;;;5053854;28;20238;-71
2024/01/25 09:15:08;;;;;;;4.40;1.73;;;;;;;;;;5054159;28;20543;-71
2024/01/25 09:17:35;;;;;;;2.57;1.30;;;;;;;;;;5070483;28;20425;-71
2024/01/25 09:20:19;;;;;;;5.57;2.50;;;;;;;;;;5054145;28;20872;-71
2024/01/25 09:22:46;;;;;;;5.53;2.30;;;;;;;;;;5070059;28;20236;-70
2024/01/25 09:25:31;;;;;;;3.30;1.50;;;;;;;;;;5053889;28;20932;-71
2024/01/25 09:27:58;;;;;;;2.90;1.87;;;;;;;;;;5053472;28;20182;-71
2024/01/25 09:30:26;;;;;;;3.13;1.73;;;;;;;;;;5053673;28;20179;-71
2024/01/25 09:32:53;;;;;;;3.27;2.13;;;;;;;;;;5036890;28;20256;-71
2024/01/25 09:35:20;;;;;;;2.60;1.67;;;;;;;;;;5054632;28;20441;-71
2024/01/25 09:37:48;;;;;;;5.43;2.37;;;;;;;;;;5069898;28;20183;-71
2024/01/25 09:40:15;;;;;;;5.57;2.77;;;;;;;;;;5054827;28;20222;-71
2024/01/25 09:42:43;;;;;;;4.03;1.60;;;;;;;;;;5049893;28;20434;-71
2024/01/25 09:45:27;;;;;;;8.07;2.87;;;;;;;;;;5034104;28;20210;-72
2024/01/25 09:47:54;;;;;;;4.63;1.87;;;;;;;;;;5033875;28;20190;-72
2024/01/25 09:50:38;;;;;;;4.47;1.53;;;;;;;;;;5033628;28;20298;-72
2024/01/25 09:53:05;;;;;;;4.67;2.53;;;;;;;;;;5016889;28;20523;-73
2024/01/25 09:55:32;;;;;;;6.10;3.27;;;;;;;;;;5032960;28;20266;-72
2024/01/25 09:57:59;;;;;;;7.20;3.90;;;;;;;;;;5034508;28;20265;-73
2024/01/25 10:00:26;;;;;;;3.90;2.10;;;;;;;;;;5031847;28;20215;-72
2024/01/25 10:02:56;;;;;;;5.70;2.40;;;;;;;;;;5017753;28;20261;-71
2024/01/25 10:05:22;;;;;;;2.53;1.80;;;;;;;;;;5015980;28;20195;-71
2024/01/25 10:07:49;;;;;;;2.43;1.20;;;;;;;;;;5017466;28;20195;-72
2024/01/25 10:10:17;;;;;;;1.70;1.13;;;;;;;;;;5032985;28;20650;-71
2024/01/25 10:12:43;;;;;;;3.67;1.10;;;;;;;;;;5033315;28;20195;-72
2024/01/25 10:15:11;;;;;;;3.03;1.13;;;;;;;;;;5033063;28;20516;-71
2024/01/25 10:17:55;;;;;;;1.70;1.00;;;;;;;;;;5019410;28;20229;-72
2024/01/25 10:20:42;;;;;;;1.80;0.97;;;;;;;;;;5032941;28;20623;-71
2024/01/25 10:23:26;;;;;;;1.70;1.07;;;;;;;;;;5033137;28;20171;-72
2024/01/25 10:25:56;;;;;;;2.43;1.33;;;;;;;;;;5049567;28;20201;-71
2024/01/25 10:28:24;;;;;;;2.60;1.50;;;;;;;;;;5032670;28;20196;-72
2024/01/25 10:30:55;;;;;;;3.20;1.30;;;;;;;;;;5048908;28;20190;-72
2024/01/25 10:33:22;;;;;;;1.90;1.37;;;;;;;;;;5033274;28;20204;-71
2024/01/25 10:35:51;;;;;;;3.20;1.10;;;;;;;;;;5037439;28;20207;-71
2024/01/25 10:38:18;;;;;;;1.40;0.90;;;;;;;;;;5052974;28;20187;-71
2024/01/25 10:40:46;;;;;;;2.03;1.00;;;;;;;;;;5052354;28;20194;-72
2024/01/25 10:43:15;;;;;;;2.20;0.97;;;;;;;;;;5052832;28;20175;-72
2024/01/25 10:45:43;;;;;;;3.73;1.30;;;;;;;;;;5037046;28;20190;-72
2024/01/25 10:48:10;;;;;;;2.10;0.83;;;;;;;;;;5053108;28;20264;-72
2024/01/25 10:50:39;;;;;;;3.13;2.03;;;;;;;;;;5052729;28;20218;-71
2024/01/25 10:53:06;;;;;;;2.33;1.30;;;;;;;;;;5053957;28;20245;-71
2024/01/25 10:55:33;;;;;;;1.33;0.93;;;;;;;;;;5031445;28;20637;-71
2024/01/25 10:58:00;;;;;;;2.40;1.40;;;;;;;;;;5032176;28;20270;-71
2024/01/25 11:00:26;;;;;;;3.03;1.23;;;;;;;;;;5032278;28;20206;-70
2024/01/25 11:02:56;;;;;;;2.60;1.27;;;;;;;;;;5032182;28;20237;-71
2024/01/25 11:05:23;;;;;;;3.20;1.37;;;;;;;;;;5032117;28;20187;-70
2024/01/25 11:07:50;;;;;;;3.70;1.63;;;;;;;;;;5016405;28;20200;-71
2024/01/25 11:10:21;;;;;;;4.20;2.00;;;;;;;;;;5033392;28;20638;-71
2024/01/25 11:12:58;;;;;;;3.20;1.40;;;;;;;;;;5032336;28;20191;-70
2024/01/25 11:15:32;;;;;;;2.87;1.80;;;;;;;;;;5032509;28;20167;-71
2024/01/25 11:17:59;;;;;;;2.60;1.03;;;;;;;;;;5019870;28;20290;-71
2024/01/25 11:20:27;;;;;;;2.07;1.10;;;;;;;;;;5036013;28;20653;-71
2024/01/25 11:22:59;;;;;;;4.60;2.70;;;;;;;;;;5036107;28;20195;-71
2024/01/25 11:25:30;;;;;;;4.77;1.90;;;;;;;;;;5036246;28;20196;-71
2024/01/25 11:27:57;;;;;;;2.23;1.10;;;;;;;;;;5036388;28;20164;-71
2024/01/25 11:30:23;;;;;;;1.97;0.90;;;;;;;;;;5035956;28;20290;-71
2024/01/25 11:33:09;;;;;;;4.13;0.90;;;;;;;;;;5022315;28;20210;-71
2024/01/25 11:35:35;;;;;;;2.23;1.27;;;;;;;;;;5019454;28;20211;-71
2024/01/25 11:38:03;;;;;;;2.13;1.07;;;;;;;;;;5019571;28;20183;-71
2024/01/25 11:40:31;;;;;;;1.97;1.10;;;;;;;;;;5036253;28;20207;-71
2024/01/25 11:43:06;;;;;;;2.00;1.00;;;;;;;;;;5020477;28;20195;-71
2024/01/25 11:45:33;;;;;;;1.47;0.80;;;;;;;;;;5020169;28;20611;-71
2024/01/25 11:48:00;;;;;;;1.50;0.93;;;;;;;;;;5035876;28;20187;-71
2024/01/25 11:50:28;;;;;;;1.73;1.10;;;;;;;;;;5036449;28;20238;-71
2024/01/25 11:53:12;;;;;;;1.63;0.87;;;;;;;;;;5046191;28;20553;-71
2024/01/25 11:56:18;;;;;;;1.17;0.80;;;;;;;;;;5036369;28;20668;-71
2024/01/25 11:58:45;;;;;;;1.17;0.70;;;;;;;;;;5035755;28;20233;-71
2024/01/25 12:01:13;;;;;;;2.20;1.03;;;;;;;;;;5018889;28;20197;-70
2024/01/25 12:03:40;;;;;;;3.07;1.10;;;;;;;;;;5019322;28;20637;-71
2024/01/25 12:06:10;;;;;;;2.53;1.10;;;;;;;;;;5002597;28;20199;-71
2024/01/25 12:08:38;;;;;;;3.37;1.10;;;;;;;;;;5035669;28;20179;-71
2024/01/25 12:11:05;;;;;;;1.83;0.87;;;;;;;;;;5035403;28;20211;-71
2024/01/25 12:13:49;;;;;;;1.57;0.90;;;;;;;;;;5035643;28;20691;-71
2024/01/25 12:16:17;;;;;;;1.37;0.83;;;;;;;;;;5034976;28;20187;-71
2024/01/25 12:18:44;;;;;;;1.20;1.10;;;;;;;;;;5018632;28;20235;-71
2024/01/25 12:21:13;;;;;;;1.53;1.00;;;;;;;;;;5034905;28;20246;-71
2024/01/25 12:23:40;;;;;;;1.97;0.60;;;;;;;;;;5018675;28;20210;-71
2024/01/25 12:26:24;;;;;;;1.23;0.60;;;;;;;;;;5021162;28;20389;-70
2024/01/25 12:28:51;;;;;;;1.90;0.70;;;;;;;;;;5035132;28;20222;-71
2024/01/25 12:31:18;;;;;;;3.13;0.80;;;;;;;;;;5035443;28;20570;-71
2024/01/25 12:33:45;;;;;;;0.47;0.47;;;;;;;;;;5035725;28;20233;-71
2024/01/25 12:36:12;;;;;;;2.10;1.10;;;;;;;;;;5035317;28;20207;-71
2024/01/25 12:38:39;;;;;;;2.70;0.80;;;;;;;;;;5034632;28;20187;-71
2024/01/25 12:41:07;;;;;;;1.50;0.77;;;;;;;;;;5035618;28;20426;-71
2024/01/25 12:43:34;;;;;;;1.43;0.40;;;;;;;;;;5018113;28;20420;-71
2024/01/25 12:46:01;;;;;;;0.90;0.60;;;;;;;;;;5034477;28;20187;-71
2024/01/25 12:48:48;;;;;;;1.90;0.70;;;;;;;;;;5034315;28;20395;-72
2024/01/25 12:51:15;;;;;;;0.40;0.33;;;;;;;;;;5018022;28;20164;-71
2024/01/25 12:53:43;;;;;;;1.70;0.73;;;;;;;;;;5034387;28;20207;-71
2024/01/25 12:56:09;;;;;;;1.37;0.83;;;;;;;;;;5036161;28;20414;-71
2024/01/25 12:58:36;;;;;;;1.57;0.80;;;;;;;;;;5001671;28;20191;-71
2024/01/25 13:01:04;;;;;;;2.23;0.83;;;;;;;;;;5017909;28;20195;-72
2024/01/25 13:03:31;;;;;;;2.40;0.90;;;;;;;;;;5034026;28;20470;-71
2024/01/25 13:06:15;;;;;;;2.40;1.10;;;;;;;;;;5034999;28;20592;-70
2024/01/25 13:08:43;;;;;;;1.50;0.80;;;;;;;;;;5034066;28;20198;-70
2024/01/25 13:11:27;;;;;;;39.87;15.17;;;;;;;;;;5035036;28;20156;-70
2024/01/25 13:13:54;;;;;;;89.07;49.60;;;;;;;;;;5033869;28;20523;-71
2024/01/25 13:16:20;;;;;;;9.67;6.57;;;;;;;;;;5033924;28;20192;-71
2024/01/25 13:18:47;;;;;;;4.47;3.07;;;;;;;;;;5017787;28;20211;-71
2024/01/25 13:21:14;;;;;;;3.70;2.50;;;;;;;;;;5033904;28;20187;-71
2024/01/25 13:23:41;;;;;;;4.37;2.00;;;;;;;;;;5033708;28;20191;-71
2024/01/25 13:26:08;;;;;;;3.30;1.80;;;;;;;;;;5017467;28;20429;-71
2024/01/25 13:28:34;;;;;;;5.00;2.77;;;;;;;;;;5034926;28;20426;-71
2024/01/25 13:31:18;;;;;;;10.97;7.53;;;;;;;;;;5034504;28;20590;-72
2024/01/25 13:33:45;;;;;;;10.60;7.03;;;;;;;;;;5034485;28;20457;-71
2024/01/25 13:36:15;;;;;;;13.70;7.20;;;;;;;;;;5033853;28;20623;-71
2024/01/25 13:38:42;;;;;;;39.90;20.43;;;;;;;;;;5034590;28;20188;-72
2024/01/25 13:41:09;;;;;;;16.07;9.43;;;;;;;;;;5016423;28;20689;-71
2024/01/25 13:43:53;;;;;;;7.30;4.40;;;;;;;;;;5034216;28;20445;-71
2024/01/25 13:46:20;;;;;;;52.87;26.30;;;;;;;;;;5034384;28;20460;-71
2024/01/25 13:48:49;;;;;;;24.47;12.80;;;;;;;;;;5034090;28;20558;-71
2024/01/25 13:51:16;;;;;;;17.97;9.70;;;;;;;;;;5016800;28;20474;-71
2024/01/25 13:53:43;;;;;;;6.87;3.77;;;;;;;;;;5033418;28;20987;-71
2024/01/25 13:56:10;;;;;;;6.37;4.60;;;;;;;;;;5016950;28;20489;-70
2024/01/25 13:58:37;;;;;;;9.00;5.70;;;;;;;;;;5033606;28;20187;-70
2024/01/25 14:01:04;;;;;;;5.73;3.70;;;;;;;;;;5033120;28;20418;-70
2024/01/25 14:03:31;;;;;;;38.83;19.27;;;;;;;;;;5034566;28;20190;-71
2024/01/25 14:06:03;;;;;;;11.23;7.07;;;;;;;;;;5033885;28;20418;-71
2024/01/25 14:08:31;;;;;;;45.03;28.60;;;;;;;;;;5001670;28;20532;-70
2024/01/25 14:10:58;;;;;;;52.47;33.27;;;;;;;;;;5032914;28;20425;-70
2024/01/25 14:13:26;;;;;;;27.70;12.63;;;;;;;;;;5033721;28;20476;-70
2024/01/25 14:15:53;;;;;;;15.27;8.63;;;;;;;;;;5032340;28;20192;-70
2024/01/25 14:18:38;;;;;;;21.13;11.27;;;;;;;;;;5036244;28;20948;-70
2024/01/25 14:21:06;;;;;;;3.43;2.00;;;;;;;;;;5033201;28;20445;-70
2024/01/25 14:23:33;;;;;;;6.37;2.50;;;;;;;;;;5033056;28;20195;-70
2024/01/25 14:26:03;;;;;;;3.73;2.70;;;;;;;;;;5032604;28;20187;-69
2024/01/25 14:28:30;;;;;;;3.53;2.70;;;;;;;;;;5033273;28;20455;-71
2024/01/25 14:30:58;;;;;;;4.80;3.40;;;;;;;;;;5030275;28;20441;-71
2024/01/25 14:33:25;;;;;;;7.33;5.87;;;;;;;;;;5037327;28;20195;-70
2024/01/25 14:35:52;;;;;;;4.87;3.40;;;;;;;;;;5032754;28;20445;-69
2024/01/25 14:38:19;;;;;;;4.70;3.27;;;;;;;;;;5048846;28;20193;-70
2024/01/25 14:40:46;;;;;;;5.13;2.90;;;;;;;;;;5066090;28;20449;-70
2024/01/25 14:43:25;;;;;;;17.13;9.63;;;;;;;;;;5062821;28;20433;-70
2024/01/25 14:46:09;;;;;;;6.30;3.40;;;;;;;;;;5034409;28;20171;-70
2024/01/25 14:48:36;;;;;;;4.33;2.13;;;;;;;;;;5048576;28;20433;-70
2024/01/25 14:51:06;;;;;;;4.80;2.90;;;;;;;;;;5034624;28;20410;-70
2024/01/25 14:53:33;;;;;;;5.37;1.93;;;;;;;;;;5037985;28;20453;-70
2024/01/25 14:56:00;;;;;;;5.83;3.20;;;;;;;;;;5036917;28;20444;-70
2024/01/25 14:58:29;;;;;;;5.57;3.47;;;;;;;;;;5037477;28;20409;-70
2024/01/25 15:00:56;;;;;;;5.33;3.40;;;;;;;;;;5036711;28;20417;-70
2024/01/25 15:03:24;;;;;;;9.30;6.33;;;;;;;;;;5036456;28;20813;-70
2024/01/25 15:05:51;;;;;;;24.40;10.13;;;;;;;;;;5036542;28;20480;-70
2024/01/25 15:08:18;;;;;;;40.50;17.00;;;;;;;;;;5036719;28;20492;-70
2024/01/25 15:10:45;;;;;;;30.73;12.73;;;;;;;;;;5037155;28;20434;-70
2024/01/25 15:13:12;;;;;;;4.77;3.03;;;;;;;;;;5038203;28;20457;-70
2024/01/25 15:15:39;;;;;;;6.63;4.30;;;;;;;;;;5036272;28;20924;-70
2024/01/25 15:18:07;;;;;;;6.77;5.50;;;;;;;;;;5037516;28;20418;-70
2024/01/25 15:20:35;;;;;;;4.93;2.97;;;;;;;;;;5052725;28;20479;-70
2024/01/25 15:23:02;;;;;;;5.20;3.90;;;;;;;;;;5042774;28;20932;-69
2024/01/25 15:25:29;;;;;;;5.17;3.70;;;;;;;;;;5036725;28;20983;-70
2024/01/25 15:27:56;;;;;;;3.17;2.50;;;;;;;;;;5035688;28;20516;-70
2024/01/25 15:30:23;;;;;;;8.40;3.80;;;;;;;;;;5037139;28;20484;-70
2024/01/25 15:32:50;;;;;;;7.27;4.00;;;;;;;;;;5035671;28;21002;-70
2024/01/25 15:35:17;;;;;;;7.97;3.80;;;;;;;;;;5035913;28;20430;-70
2024/01/25 15:37:44;;;;;;;7.30;3.33;;;;;;;;;;5035230;28;20850;-70